sensor_id;sensor_type;location;lat;lon;timestamp;pressure;altitude;pressure_sealevel;temperature;humidity
45253;BME280;63171;50.520;30.486;2023-04-20T00:02:09;99843.09;;;11.94;51.15
45253;BME280;63171;50.520;30.486;2023-04-20T00:03:03;99851.91;;;11.93;51.19
45253;BME280;63171;50.520;30.486;2023-04-20T00:03:53;99844.56;;;11.98;51.04
45253;BME280;63171;50.520;30.486;2023-04-20T00:04:44;99843.50;;;12.01;51.17
45253;BME280;63171;50.520;30.486;2023-04-20T00:05:35;99846.25;;;11.99;51.09
45253;BME280;63171;50.520;30.486;2023-04-20T00:06:26;99839.03;;;12.03;51.09
45253;BME280;63171;50.520;30.486;2023-04-20T00:07:17;99843.09;;;12.07;51.26
45253;BME280;63171;50.520;30.486;2023-04-20T00:08:08;99833.44;;;12.07;51.23
45253;BME280;63171;50.520;30.486;2023-04-20T00:08:57;99835.75;;;12.12;51.28
45253;BME280;63171;50.520;30.486;2023-04-20T00:09:48;99836.41;;;12.03;51.11
45253;BME280;63171;50.520;30.486;2023-04-20T00:10:38;99846.06;;;12.02;51.19
45253;BME280;63171;50.520;30.486;2023-04-20T00:11:29;99845.84;;;12.05;51.22
45253;BME280;63171;50.520;30.486;2023-04-20T00:12:19;99837.97;;;12.05;51.09
45253;BME280;63171;50.520;30.486;2023-04-20T00:13:10;99836.91;;;12.08;51.55
45253;BME280;63171;50.520;30.486;2023-04-20T00:13:59;99836.41;;;12.03;51.05
45253;BME280;63171;50.520;30.486;2023-04-20T00:14:49;99837.13;;;12.05;51.22
45253;BME280;63171;50.520;30.486;2023-04-20T00:15:40;99845.63;;;12.08;51.20
45253;BME280;63171;50.520;30.486;2023-04-20T00:16:29;99843.22;;;12.05;51.27
45253;BME280;63171;50.520;30.486;2023-04-20T00:17:22;99843.22;;;12.05;51.09
45253;BME280;63171;50.520;30.486;2023-04-20T00:18:11;99836.59;;;12.12;51.30
45253;BME280;63171;50.520;30.486;2023-04-20T00:19:02;99847.72;;;12.03;51.09
45253;BME280;63171;50.520;30.486;2023-04-20T00:19:52;99841.44;;;11.93;51.08
45253;BME280;63171;50.520;30.486;2023-04-20T00:20:41;99843.09;;;11.81;51.15
45253;BME280;63171;50.520;30.486;2023-04-20T00:21:32;99843.44;;;11.90;51.32
45253;BME280;63171;50.520;30.486;2023-04-20T00:22:22;99836.69;;;11.98;51.20
45253;BME280;63171;50.520;30.486;2023-04-20T00:23:13;99843.50;;;11.88;51.31
45253;BME280;63171;50.520;30.486;2023-04-20T00:24:03;99839.41;;;11.84;51.21
45253;BME280;63171;50.520;30.486;2023-04-20T00:24:54;99838.81;;;11.93;51.27
45253;BME280;63171;50.520;30.486;2023-04-20T00:25:44;99837.84;;;11.94;51.34
45253;BME280;63171;50.520;30.486;2023-04-20T00:26:37;99838.91;;;11.79;51.17
45253;BME280;63171;50.520;30.486;2023-04-20T00:27:27;99840.75;;;11.77;51.45
45253;BME280;63171;50.520;30.486;2023-04-20T00:28:18;99838.84;;;11.66;51.20
45253;BME280;63171;50.520;30.486;2023-04-20T00:29:08;99836.22;;;11.53;51.37
45253;BME280;63171;50.520;30.486;2023-04-20T00:29:59;99828.88;;;11.71;51.57
45253;BME280;63171;50.520;30.486;2023-04-20T00:30:49;99832.72;;;11.80;51.62
45253;BME280;63171;50.520;30.486;2023-04-20T00:31:40;99833.06;;;11.74;51.53
45253;BME280;63171;50.520;30.486;2023-04-20T00:32:31;99832.13;;;11.75;51.70
45253;BME280;63171;50.520;30.486;2023-04-20T00:33:22;99837.16;;;11.65;51.60
45253;BME280;63171;50.520;30.486;2023-04-20T00:34:12;99822.28;;;11.78;51.82
45253;BME280;63171;50.520;30.486;2023-04-20T00:35:05;99829.47;;;11.89;51.92
45253;BME280;63171;50.520;30.486;2023-04-20T00:35:54;99827.69;;;11.90;51.78
45253;BME280;63171;50.520;30.486;2023-04-20T00:36:46;99831.75;;;11.94;51.61
45253;BME280;63171;50.520;30.486;2023-04-20T00:37:36;99829.88;;;11.96;52.12
45253;BME280;63171;50.520;30.486;2023-04-20T00:38:27;99821.78;;;11.86;52.26
45253;BME280;63171;50.520;30.486;2023-04-20T00:39:16;99820.31;;;11.82;51.78
45253;BME280;63171;50.520;30.486;2023-04-20T00:40:08;99825.84;;;11.77;51.90
45253;BME280;63171;50.520;30.486;2023-04-20T00:40:59;99815.28;;;11.79;51.96
45253;BME280;63171;50.520;30.486;2023-04-20T00:41:50;99823.53;;;11.73;52.07
45253;BME280;63171;50.520;30.486;2023-04-20T00:42:41;99827.81;;;11.74;51.99
45253;BME280;63171;50.520;30.486;2023-04-20T00:43:32;99818.81;;;11.65;51.96
45253;BME280;63171;50.520;30.486;2023-04-20T00:44:21;99814.72;;;11.74;52.30
45253;BME280;63171;50.520;30.486;2023-04-20T00:45:12;99824.34;;;11.73;52.23
45253;BME280;63171;50.520;30.486;2023-04-20T00:46:01;99826.50;;;11.81;52.10
45253;BME280;63171;50.520;30.486;2023-04-20T00:46:53;99814.00;;;11.84;52.22
45253;BME280;63171;50.520;30.486;2023-04-20T00:47:46;99815.41;;;11.90;52.32
45253;BME280;63171;50.520;30.486;2023-04-20T00:48:37;99816.19;;;11.78;52.06
45253;BME280;63171;50.520;30.486;2023-04-20T00:49:28;99808.66;;;11.86;52.44
45253;BME280;63171;50.520;30.486;2023-04-20T00:50:20;99811.50;;;11.83;52.29
45253;BME280;63171;50.520;30.486;2023-04-20T00:51:09;99811.94;;;11.90;52.45
45253;BME280;63171;50.520;30.486;2023-04-20T00:52:01;99803.84;;;11.93;52.56
45253;BME280;63171;50.520;30.486;2023-04-20T00:52:51;99808.16;;;11.94;52.51
45253;BME280;63171;50.520;30.486;2023-04-20T00:53:42;99800.59;;;11.89;52.41
45253;BME280;63171;50.520;30.486;2023-04-20T00:54:33;99802.47;;;11.87;52.47
45253;BME280;63171;50.520;30.486;2023-04-20T00:55:25;99805.94;;;11.88;52.39
45253;BME280;63171;50.520;30.486;2023-04-20T00:56:16;99811.59;;;11.81;52.42
45253;BME280;63171;50.520;30.486;2023-04-20T00:57:07;99805.53;;;11.81;52.41
45253;BME280;63171;50.520;30.486;2023-04-20T00:58:00;99803.53;;;11.84;52.18
45253;BME280;63171;50.520;30.486;2023-04-20T00:58:50;99805.09;;;11.87;52.55
45253;BME280;63171;50.520;30.486;2023-04-20T00:59:40;99802.06;;;11.80;52.55
45253;BME280;63171;50.520;30.486;2023-04-20T01:00:31;99799.06;;;11.72;52.46
45253;BME280;63171;50.520;30.486;2023-04-20T01:01:21;99800.84;;;11.72;52.57
45253;BME280;63171;50.520;30.486;2023-04-20T01:02:12;99798.94;;;11.36;52.36
45253;BME280;63171;50.520;30.486;2023-04-20T01:03:06;99797.19;;;11.49;52.54
45253;BME280;63171;50.520;30.486;2023-04-20T01:03:56;99796.25;;;11.63;52.63
45253;BME280;63171;50.520;30.486;2023-04-20T01:04:47;99798.22;;;11.72;52.73
45253;BME280;63171;50.520;30.486;2023-04-20T01:05:37;99795.41;;;11.75;52.70
45253;BME280;63171;50.520;30.486;2023-04-20T01:06:27;99794.56;;;11.74;52.85
45253;BME280;63171;50.520;30.486;2023-04-20T01:07:18;99797.44;;;11.84;52.82
45253;BME280;63171;50.520;30.486;2023-04-20T01:08:08;99790.41;;;11.84;52.98
45253;BME280;63171;50.520;30.486;2023-04-20T01:09:00;99794.81;;;11.84;52.91
45253;BME280;63171;50.520;30.486;2023-04-20T01:09:49;99792.19;;;11.84;53.14
45253;BME280;63171;50.520;30.486;2023-04-20T01:10:40;99793.34;;;11.80;52.77
45253;BME280;63171;50.520;30.486;2023-04-20T01:11:30;99798.13;;;11.73;52.99
45253;BME280;63171;50.520;30.486;2023-04-20T01:12:20;99789.53;;;11.71;53.02
45253;BME280;63171;50.520;30.486;2023-04-20T01:13:10;99797.72;;;11.67;52.99
45253;BME280;63171;50.520;30.486;2023-04-20T01:14:01;99796.66;;;11.69;52.89
45253;BME280;63171;50.520;30.486;2023-04-20T01:14:50;99787.63;;;11.61;52.77
45253;BME280;63171;50.520;30.486;2023-04-20T01:15:41;99792.88;;;11.61;53.01
45253;BME280;63171;50.520;30.486;2023-04-20T01:16:31;99791.84;;;11.63;53.16
45253;BME280;63171;50.520;30.486;2023-04-20T01:17:23;99796.88;;;11.66;53.03
45253;BME280;63171;50.520;30.486;2023-04-20T01:18:15;99793.31;;;11.67;53.17
45253;BME280;63171;50.520;30.486;2023-04-20T01:19:05;99782.59;;;11.70;53.39
45253;BME280;63171;50.520;30.486;2023-04-20T01:19:56;99792.69;;;11.64;53.25
45253;BME280;63171;50.520;30.486;2023-04-20T01:20:50;99792.56;;;11.65;53.33
45253;BME280;63171;50.520;30.486;2023-04-20T01:21:40;99783.34;;;11.72;53.54
45253;BME280;63171;50.520;30.486;2023-04-20T01:22:31;99785.00;;;11.73;53.49
45253;BME280;63171;50.520;30.486;2023-04-20T01:23:22;99793.41;;;11.66;53.47
45253;BME280;63171;50.520;30.486;2023-04-20T01:24:11;99793.09;;;11.70;53.44
45253;BME280;63171;50.520;30.486;2023-04-20T01:25:03;99790.78;;;11.66;53.51
45253;BME280;63171;50.520;30.486;2023-04-20T01:25:53;99792.38;;;11.68;53.35
45253;BME280;63171;50.520;30.486;2023-04-20T01:26:43;99790.69;;;11.67;53.49
45253;BME280;63171;50.520;30.486;2023-04-20T01:27:34;99785.84;;;11.61;53.52
45253;BME280;63171;50.520;30.486;2023-04-20T01:28:24;99793.94;;;11.71;53.58
45253;BME280;63171;50.520;30.486;2023-04-20T01:29:15;99789.75;;;11.68;53.66
45253;BME280;63171;50.520;30.486;2023-04-20T01:30:06;99789.53;;;11.71;53.56
45253;BME280;63171;50.520;30.486;2023-04-20T01:31:01;99784.72;;;11.78;53.83
45253;BME280;63171;50.520;30.486;2023-04-20T01:31:50;99785.13;;;11.72;53.74
45253;BME280;63171;50.520;30.486;2023-04-20T01:32:42;99789.88;;;11.79;53.72
45253;BME280;63171;50.520;30.486;2023-04-20T01:33:32;99786.09;;;11.83;53.83
45253;BME280;63171;50.520;30.486;2023-04-20T01:34:23;99787.22;;;11.67;53.64
45253;BME280;63171;50.520;30.486;2023-04-20T01:35:13;99794.78;;;11.71;53.66
45253;BME280;63171;50.520;30.486;2023-04-20T01:36:05;99785.13;;;11.72;53.78
45253;BME280;63171;50.520;30.486;2023-04-20T01:36:55;99789.53;;;11.71;53.66
45253;BME280;63171;50.520;30.486;2023-04-20T01:37:47;99788.47;;;11.74;53.72
45253;BME280;63171;50.520;30.486;2023-04-20T01:38:37;99778.44;;;11.80;53.94
45253;BME280;63171;50.520;30.486;2023-04-20T01:39:28;99779.69;;;11.88;54.12
45253;BME280;63171;50.520;30.486;2023-04-20T01:40:19;99774.88;;;11.81;53.85
45253;BME280;63171;50.520;30.486;2023-04-20T01:41:10;99787.22;;;11.67;53.61
45253;BME280;63171;50.520;30.486;2023-04-20T01:41:59;99782.72;;;11.69;53.89
45253;BME280;63171;50.520;30.486;2023-04-20T01:42:50;99776.44;;;11.84;53.92
45253;BME280;63171;50.520;30.486;2023-04-20T01:43:40;99779.16;;;11.82;53.88
45253;BME280;63171;50.520;30.486;2023-04-20T01:44:31;99780.91;;;11.69;53.71
45253;BME280;63171;50.520;30.486;2023-04-20T01:45:22;99779.97;;;11.70;53.79
45253;BME280;63171;50.520;30.486;2023-04-20T01:46:13;99771.53;;;11.79;53.94
45253;BME280;63171;50.520;30.486;2023-04-20T01:47:03;99775.72;;;11.82;53.90
45253;BME280;63171;50.520;30.486;2023-04-20T01:47:54;99774.88;;;11.81;53.96
45253;BME280;63171;50.520;30.486;2023-04-20T01:48:43;99781.19;;;11.79;53.97
45253;BME280;63171;50.520;30.486;2023-04-20T01:49:34;99772.53;;;11.77;53.92
45253;BME280;63171;50.520;30.486;2023-04-20T01:50:24;99774.41;;;11.75;53.81
45253;BME280;63171;50.520;30.486;2023-04-20T01:51:15;99769.25;;;11.73;53.78
45253;BME280;63171;50.520;30.486;2023-04-20T01:52:05;99767.09;;;11.80;53.86
45253;BME280;63171;50.520;30.486;2023-04-20T01:52:57;99774.75;;;11.83;53.98
45253;BME280;63171;50.520;30.486;2023-04-20T01:53:47;99774.50;;;11.73;53.83
45253;BME280;63171;50.520;30.486;2023-04-20T01:54:38;99775.16;;;11.77;53.91
45253;BME280;63171;50.520;30.486;2023-04-20T01:55:28;99767.94;;;11.80;53.99
45253;BME280;63171;50.520;30.486;2023-04-20T01:56:19;99771.59;;;11.78;53.90
45253;BME280;63171;50.520;30.486;2023-04-20T01:57:09;99771.88;;;11.73;53.92
45253;BME280;63171;50.520;30.486;2023-04-20T01:57:59;99769.72;;;11.80;54.01
45253;BME280;63171;50.520;30.486;2023-04-20T01:58:49;99768.69;;;11.82;53.96
45253;BME280;63171;50.520;30.486;2023-04-20T01:59:39;99762.69;;;11.80;54.03
45253;BME280;63171;50.520;30.486;2023-04-20T02:00:29;99762.59;;;11.82;54.04
45253;BME280;63171;50.520;30.486;2023-04-20T02:01:21;99764.56;;;11.78;53.82
45253;BME280;63171;50.520;30.486;2023-04-20T02:02:11;99770.69;;;11.79;53.94
45253;BME280;63171;50.520;30.486;2023-04-20T02:03:02;99765.91;;;11.71;53.85
45253;BME280;63171;50.520;30.486;2023-04-20T02:03:51;99761.94;;;11.78;53.94
45253;BME280;63171;50.520;30.486;2023-04-20T02:04:43;99761.94;;;11.78;53.83
45253;BME280;63171;50.520;30.486;2023-04-20T02:05:33;99763.06;;;11.74;53.83
45253;BME280;63171;50.520;30.486;2023-04-20T02:06:24;99764.56;;;11.78;53.84
45253;BME280;63171;50.520;30.486;2023-04-20T02:07:14;99768.66;;;11.70;53.83
45253;BME280;63171;50.520;30.486;2023-04-20T02:08:06;99760.38;;;11.76;53.97
45253;BME280;63171;50.520;30.486;2023-04-20T02:08:56;99755.13;;;11.76;54.01
45253;BME280;63171;50.520;30.486;2023-04-20T02:09:47;99759.13;;;11.81;54.14
45253;BME280;63171;50.520;30.486;2023-04-20T02:10:36;99757.81;;;11.74;53.94
45253;BME280;63171;50.520;30.486;2023-04-20T02:11:27;99758.03;;;11.71;53.71
45253;BME280;63171;50.520;30.486;2023-04-20T02:12:16;99762.44;;;11.71;53.91
45253;BME280;63171;50.520;30.486;2023-04-20T02:13:07;99755.00;;;11.77;54.00
45253;BME280;63171;50.520;30.486;2023-04-20T02:13:57;99754.28;;;11.75;54.10
45253;BME280;63171;50.520;30.486;2023-04-20T02:14:48;99753.00;;;11.68;53.98
45253;BME280;63171;50.520;30.486;2023-04-20T02:15:38;99757.09;;;11.60;53.83
45253;BME280;63171;50.520;30.486;2023-04-20T02:16:29;99755.97;;;11.64;53.94
45253;BME280;63171;50.520;30.486;2023-04-20T02:17:19;99753.84;;;11.69;53.95
45253;BME280;63171;50.520;30.486;2023-04-20T02:18:10;99749.44;;;11.69;54.00
45253;BME280;63171;50.520;30.486;2023-04-20T02:19:00;99756.81;;;11.77;53.95
45253;BME280;63171;50.520;30.486;2023-04-20T02:19:51;99758.03;;;11.71;54.20
45253;BME280;63171;50.520;30.486;2023-04-20T02:20:41;99754.59;;;11.71;53.95
45253;BME280;63171;50.520;30.486;2023-04-20T02:21:32;99756.16;;;11.73;53.93
45253;BME280;63171;50.520;30.486;2023-04-20T02:22:22;99755.84;;;11.78;53.90
45253;BME280;63171;50.520;30.486;2023-04-20T02:23:14;99751.84;;;11.72;54.00
45253;BME280;63171;50.520;30.486;2023-04-20T02:24:05;99754.91;;;11.66;53.81
45253;BME280;63171;50.520;30.486;2023-04-20T02:24:56;99747.31;;;11.62;53.80
45253;BME280;63171;50.520;30.486;2023-04-20T02:25:46;99766.56;;;11.62;53.91
45253;BME280;63171;50.520;30.486;2023-04-20T02:26:36;99753.44;;;11.62;53.78
45253;BME280;63171;50.520;30.486;2023-04-20T02:27:26;99756.16;;;11.61;53.86
45253;BME280;63171;50.520;30.486;2023-04-20T02:28:16;99759.72;;;11.60;53.87
45253;BME280;63171;50.520;30.486;2023-04-20T02:29:06;99752.50;;;11.63;53.83
45253;BME280;63171;50.520;30.486;2023-04-20T02:29:58;99751.75;;;11.61;53.81
45253;BME280;63171;50.520;30.486;2023-04-20T02:30:49;99750.28;;;11.57;53.78
45253;BME280;63171;50.520;30.486;2023-04-20T02:31:38;99753.00;;;11.55;53.84
45253;BME280;63171;50.520;30.486;2023-04-20T02:32:30;99749.53;;;11.55;53.78
45253;BME280;63171;50.520;30.486;2023-04-20T02:33:20;99746.59;;;11.60;53.80
45253;BME280;63171;50.520;30.486;2023-04-20T02:34:11;99749.13;;;11.61;53.81
45253;BME280;63171;50.520;30.486;2023-04-20T02:35:01;99752.16;;;11.55;53.68
45253;BME280;63171;50.520;30.486;2023-04-20T02:35:52;99747.13;;;11.52;53.61
45253;BME280;63171;50.520;30.486;2023-04-20T02:36:42;99748.59;;;11.56;53.76
45253;BME280;63171;50.520;30.486;2023-04-20T02:37:35;99749.44;;;11.57;53.73
45253;BME280;63171;50.520;30.486;2023-04-20T02:38:28;99746.41;;;11.50;53.98
45253;BME280;63171;50.520;30.486;2023-04-20T02:39:19;99744.81;;;11.47;53.73
45253;BME280;63171;50.520;30.486;2023-04-20T02:40:09;99750.91;;;11.48;53.67
45253;BME280;63171;50.520;30.486;2023-04-20T02:41:00;99746.59;;;11.60;53.59
45253;BME280;63171;50.520;30.486;2023-04-20T02:41:50;99748.59;;;11.56;53.68
45253;BME280;63171;50.520;30.486;2023-04-20T02:42:40;99740.00;;;11.54;53.46
45253;BME280;63171;50.520;30.486;2023-04-20T02:43:32;99751.44;;;11.53;53.58
45253;BME280;63171;50.520;30.486;2023-04-20T02:44:26;99756.25;;;11.59;53.64
45253;BME280;63171;50.520;30.486;2023-04-20T02:45:16;99743.78;;;11.63;53.54
45253;BME280;63171;50.520;30.486;2023-04-20T02:46:09;99740.22;;;11.64;53.44
45253;BME280;63171;50.520;30.486;2023-04-20T02:46:58;99747.66;;;11.57;53.46
45253;BME280;63171;50.520;30.486;2023-04-20T02:47:49;99753.84;;;11.56;53.51
45253;BME280;63171;50.520;30.486;2023-04-20T02:48:40;99741.06;;;11.64;53.67
45253;BME280;63171;50.520;30.486;2023-04-20T02:49:31;99744.72;;;11.74;53.59
45253;BME280;63171;50.520;30.486;2023-04-20T02:50:21;99743.03;;;11.73;53.64
45253;BME280;63171;50.520;30.486;2023-04-20T02:51:51;99739.06;;;11.68;53.49
45253;BME280;63171;50.520;30.486;2023-04-20T02:52:41;99739.28;;;11.65;53.44
45253;BME280;63171;50.520;30.486;2023-04-20T02:53:33;99744.72;;;11.62;53.49
45253;BME280;63171;50.520;30.486;2023-04-20T02:54:35;99737.88;;;11.59;53.46
45253;BME280;63171;50.520;30.486;2023-04-20T02:55:25;99746.94;;;11.55;53.48
45253;BME280;63171;50.520;30.486;2023-04-20T02:56:20;99739.47;;;11.62;53.59
45253;BME280;63171;50.520;30.486;2023-04-20T02:57:15;99742.75;;;11.65;53.37
45253;BME280;63171;50.520;30.486;2023-04-20T02:58:05;99735.81;;;11.64;53.32
45253;BME280;63171;50.520;30.486;2023-04-20T02:59:19;99742.00;;;11.50;53.49
45253;BME280;63171;50.520;30.486;2023-04-20T03:00:20;99740.00;;;11.54;53.44
45253;BME280;63171;50.520;30.486;2023-04-20T03:01:23;99737.28;;;11.55;53.44
45253;BME280;63171;50.520;30.486;2023-04-20T03:02:22;99740.00;;;11.54;53.38
45253;BME280;63171;50.520;30.486;2023-04-20T03:03:13;99740.63;;;11.58;53.55
45253;BME280;63171;50.520;30.486;2023-04-20T03:04:04;99737.78;;;11.61;53.39
45253;BME280;63171;50.520;30.486;2023-04-20T03:04:59;99734.22;;;11.62;53.41
45253;BME280;63171;50.520;30.486;2023-04-20T03:05:50;99729.06;;;11.60;53.41
45253;BME280;63171;50.520;30.486;2023-04-20T03:06:41;99735.59;;;11.54;53.30
45253;BME280;63171;50.520;30.486;2023-04-20T03:07:37;99737.38;;;11.54;53.53
45253;BME280;63171;50.520;30.486;2023-04-20T03:08:28;99736.09;;;11.60;53.44
45253;BME280;63171;50.520;30.486;2023-04-20T03:09:23;99726.88;;;11.54;53.48
45253;BME280;63171;50.520;30.486;2023-04-20T03:10:49;99744.19;;;11.44;53.41
45253;BME280;63171;50.520;30.486;2023-04-20T03:11:42;99733.47;;;11.47;53.50
45253;BME280;63171;50.520;30.486;2023-04-20T03:12:39;99742.72;;;11.52;53.54
45253;BME280;63171;50.520;30.486;2023-04-20T03:13:29;99735.81;;;11.51;53.40
45253;BME280;63171;50.520;30.486;2023-04-20T03:14:23;99735.38;;;11.58;53.36
45253;BME280;63171;50.520;30.486;2023-04-20T03:15:15;99736.66;;;11.52;53.47
45253;BME280;63171;50.520;30.486;2023-04-20T03:16:20;99733.19;;;11.51;53.47
45253;BME280;63171;50.520;30.486;2023-04-20T03:17:13;99733.69;;;11.57;53.37
45253;BME280;63171;50.520;30.486;2023-04-20T03:18:04;99736.00;;;11.61;53.34
45253;BME280;63171;50.520;30.486;2023-04-20T03:18:54;99739.50;;;11.49;53.54
45253;BME280;63171;50.520;30.486;2023-04-20T03:19:44;99732.84;;;11.43;53.33
45253;BME280;63171;50.520;30.486;2023-04-20T03:20:34;99735.91;;;11.37;53.28
45253;BME280;63171;50.520;30.486;2023-04-20T03:21:24;99738.00;;;11.45;53.39
45253;BME280;63171;50.520;30.486;2023-04-20T03:22:15;99732.75;;;11.45;53.36
45253;BME280;63171;50.520;30.486;2023-04-20T03:23:08;99740.41;;;11.35;53.42
45253;BME280;63171;50.520;30.486;2023-04-20T03:23:59;99737.50;;;11.52;53.57
45253;BME280;63171;50.520;30.486;2023-04-20T03:24:50;99735.81;;;11.51;53.51
45253;BME280;63171;50.520;30.486;2023-04-20T03:25:56;99746.19;;;11.53;53.53
45253;BME280;63171;50.520;30.486;2023-04-20T03:27:04;99738.44;;;11.51;53.35
45253;BME280;63171;50.520;30.486;2023-04-20T03:28:04;99737.06;;;11.46;53.25
45253;BME280;63171;50.520;30.486;2023-04-20T03:28:54;99741.34;;;11.34;53.26
45253;BME280;63171;50.520;30.486;2023-04-20T03:29:47;99740.00;;;11.41;53.38
45253;BME280;63171;50.520;30.486;2023-04-20T03:30:38;99737.81;;;11.35;53.34
45253;BME280;63171;50.520;30.486;2023-04-20T03:31:35;99740.50;;;11.34;53.30
45253;BME280;63171;50.520;30.486;2023-04-20T03:32:25;99739.25;;;11.39;53.30
45253;BME280;63171;50.520;30.486;2023-04-20T03:33:16;99739.88;;;11.43;53.41
45253;BME280;63171;50.520;30.486;2023-04-20T03:34:06;99733.91;;;11.41;53.40
45253;BME280;63171;50.520;30.486;2023-04-20T03:34:57;99733.28;;;11.50;53.44
45253;BME280;63171;50.520;30.486;2023-04-20T03:35:47;99742.00;;;11.50;53.40
45253;BME280;63171;50.520;30.486;2023-04-20T03:36:38;99730.84;;;11.47;53.37
45253;BME280;63171;50.520;30.486;2023-04-20T03:37:28;99727.28;;;11.48;53.27
45253;BME280;63171;50.520;30.486;2023-04-20T03:38:18;99736.44;;;11.42;53.32
45253;BME280;63171;50.520;30.486;2023-04-20T03:39:09;99736.94;;;11.47;53.01
45253;BME280;63171;50.520;30.486;2023-04-20T03:40:20;99741.25;;;11.48;53.36
45253;BME280;63171;50.520;30.486;2023-04-20T03:41:11;99736.09;;;11.47;52.92
45253;BME280;63171;50.520;30.486;2023-04-20T03:42:01;99730.84;;;11.47;53.15
45253;BME280;63171;50.520;30.486;2023-04-20T03:42:52;99731.81;;;11.46;53.08
45253;BME280;63171;50.520;30.486;2023-04-20T03:43:41;99734.97;;;11.51;53.05
45253;BME280;63171;50.520;30.486;2023-04-20T03:44:32;99738.44;;;11.51;53.12
45253;BME280;63171;50.520;30.486;2023-04-20T03:45:22;99737.25;;;11.43;53.12
45253;BME280;63171;50.520;30.486;2023-04-20T03:46:13;99726.66;;;11.44;53.19
45253;BME280;63171;50.520;30.486;2023-04-20T03:47:02;99736.75;;;11.50;53.11
45253;BME280;63171;50.520;30.486;2023-04-20T03:47:54;99723.53;;;11.52;53.03
45253;BME280;63171;50.520;30.486;2023-04-20T03:48:45;99738.94;;;11.44;52.94
45253;BME280;63171;50.520;30.486;2023-04-20T03:49:35;99729.50;;;11.41;52.83
45253;BME280;63171;50.520;30.486;2023-04-20T03:50:25;99729.19;;;11.46;52.93
45253;BME280;63171;50.520;30.486;2023-04-20T03:51:16;99730.75;;;11.48;52.81
45253;BME280;63171;50.520;30.486;2023-04-20T03:52:06;99732.84;;;11.43;52.63
45253;BME280;63171;50.520;30.486;2023-04-20T03:52:57;99738.00;;;11.45;52.75
45253;BME280;63171;50.520;30.486;2023-04-20T03:53:47;99731.28;;;11.53;52.70
45253;BME280;63171;50.520;30.486;2023-04-20T03:54:38;99724.47;;;11.51;52.73
45253;BME280;63171;50.520;30.486;2023-04-20T03:55:30;99733.19;;;11.51;52.64
45253;BME280;63171;50.520;30.486;2023-04-20T03:56:26;99729.00;;;11.49;52.74
45253;BME280;63171;50.520;30.486;2023-04-20T03:57:17;99727.84;;;11.53;52.85
45253;BME280;63171;50.520;30.486;2023-04-20T03:58:08;99732.66;;;11.46;52.52
45253;BME280;63171;50.520;30.486;2023-04-20T03:59:07;99731.59;;;11.36;52.50
45253;BME280;63171;50.520;30.486;2023-04-20T03:59:58;99729.00;;;11.36;52.43
45253;BME280;63171;50.520;30.486;2023-04-20T04:01:00;99740.22;;;11.38;52.35
45253;BME280;63171;50.520;30.486;2023-04-20T04:02:10;99734.97;;;11.38;52.52
45253;BME280;63171;50.520;30.486;2023-04-20T04:03:04;99739.16;;;11.41;52.55
45253;BME280;63171;50.520;30.486;2023-04-20T04:03:55;99738.44;;;11.39;52.41
45253;BME280;63171;50.520;30.486;2023-04-20T04:04:46;99738.53;;;11.37;52.47
45253;BME280;63171;50.520;30.486;2023-04-20T04:05:36;99743.97;;;11.34;52.47
45253;BME280;63171;50.520;30.486;2023-04-20T04:06:27;99737.88;;;11.34;52.38
45253;BME280;63171;50.520;30.486;2023-04-20T04:07:17;99743.47;;;11.42;52.45
45253;BME280;63171;50.520;30.486;2023-04-20T04:08:08;99740.63;;;11.45;52.54
45253;BME280;63171;50.520;30.486;2023-04-20T04:08:58;99737.78;;;11.48;52.59
45253;BME280;63171;50.520;30.486;2023-04-20T04:09:48;99738.72;;;11.47;52.51
45253;BME280;63171;50.520;30.486;2023-04-20T04:10:39;99731.28;;;11.41;52.42
45253;BME280;63171;50.520;30.486;2023-04-20T04:11:30;99728.44;;;11.44;52.45
45253;BME280;63171;50.520;30.486;2023-04-20T04:12:21;99732.47;;;11.49;52.33
45253;BME280;63171;50.520;30.486;2023-04-20T04:13:14;99727.28;;;11.48;52.68
45253;BME280;63171;50.520;30.486;2023-04-20T04:14:05;99734.03;;;11.52;52.46
45253;BME280;63171;50.520;30.486;2023-04-20T04:14:58;99736.75;;;11.38;52.54
45253;BME280;63171;50.520;30.486;2023-04-20T04:15:52;99741.25;;;11.36;52.28
45253;BME280;63171;50.520;30.486;2023-04-20T04:16:43;99734.00;;;11.39;52.43
45253;BME280;63171;50.520;30.486;2023-04-20T04:17:34;99737.97;;;11.32;52.39
45253;BME280;63171;50.520;30.486;2023-04-20T04:18:25;99738.41;;;11.26;52.35
45253;BME280;63171;50.520;30.486;2023-04-20T04:19:18;99737.97;;;11.32;52.31
45253;BME280;63171;50.520;30.486;2023-04-20T04:20:10;99736.09;;;11.34;52.56
45253;BME280;63171;50.520;30.486;2023-04-20T04:21:00;99731.50;;;11.38;52.43
45253;BME280;63171;50.520;30.486;2023-04-20T04:21:52;99731.50;;;11.50;52.46
45253;BME280;63171;50.520;30.486;2023-04-20T04:22:42;99735.91;;;11.50;52.59
45253;BME280;63171;50.520;30.486;2023-04-20T04:23:57;99722.38;;;11.43;52.38
45253;BME280;63171;50.520;30.486;2023-04-20T04:24:54;99728.22;;;11.47;52.37
45253;BME280;63171;50.520;30.486;2023-04-20T04:25:46;99726.66;;;11.44;52.49
45253;BME280;63171;50.520;30.486;2023-04-20T04:26:38;99722.47;;;11.54;52.50
45253;BME280;63171;50.520;30.486;2023-04-20T04:27:29;99725.63;;;11.60;52.57
45253;BME280;63171;50.520;30.486;2023-04-20T04:28:24;99724.59;;;11.62;52.47
45253;BME280;63171;50.520;30.486;2023-04-20T04:29:28;99721.09;;;11.62;52.42
45253;BME280;63171;50.520;30.486;2023-04-20T04:30:25;99725.22;;;11.66;52.50
45253;BME280;63171;50.520;30.486;2023-04-20T04:31:16;99729.41;;;11.68;52.48
45253;BME280;63171;50.520;30.486;2023-04-20T04:32:08;99729.84;;;11.62;52.44
45253;BME280;63171;50.520;30.486;2023-04-20T04:33:01;99724.59;;;11.62;52.33